sensor_id;sensor_type;location;lat;lon;timestamp;pressure;altitude;pressure_sealevel;temperature;humidity
13209;BME280;6669;42.678;23.332;2023-03-13T00:01:29;94767.63;;;0.86;100.00
13209;BME280;6669;42.678;23.332;2023-03-13T00:03:57;94765.19;;;0.84;100.00
13209;BME280;6669;42.678;23.332;2023-03-13T00:06:27;94776.84;;;0.88;100.00
13209;BME280;6669;42.678;23.332;2023-03-13T00:08:58;94770.31;;;0.84;100.00
13209;BME280;6669;42.678;23.332;2023-03-13T00:11:27;94772.56;;;0.76;100.00
13209;BME280;6669;42.678;23.332;2023-03-13T00:13:57;94784.03;;;0.83;100.00
13209;BME280;6669;42.678;23.332;2023-03-13T00:16:27;94789.25;;;0.81;100.00
13209;BME280;6669;42.678;23.332;2023-03-13T00:18:56;94789.34;;;0.80;100.00
13209;BME280;6669;42.678;23.332;2023-03-13T00:21:26;94791.59;;;0.85;100.00
13209;BME280;6669;42.678;23.332;2023-03-13T00:23:56;94800.00;;;0.87;100.00
13209;BME280;6669;42.678;23.332;2023-03-13T00:26:25;94797.84;;;0.80;100.00
13209;BME280;6669;42.678;23.332;2023-03-13T00:28:54;94798.97;;;0.76;100.00
13209;BME280;6669;42.678;23.332;2023-03-13T00:31:23;94804.44;;;0.72;100.00
13209;BME280;6669;42.678;23.332;2023-03-13T00:33:56;94796.16;;;0.68;100.00
13209;BME280;6669;42.678;23.332;2023-03-13T00:36:29;94797.19;;;0.65;100.00
13209;BME280;6669;42.678;23.332;2023-03-13T00:38:59;94765.41;;;0.44;100.00
13209;BME280;6669;42.678;23.332;2023-03-13T00:41:29;94802.72;;;0.59;100.00
13209;BME280;6669;42.678;23.332;2023-03-13T00:43:57;94804.16;;;0.51;100.00
13209;BME280;6669;42.678;23.332;2023-03-13T00:46:27;94801.84;;;0.47;100.00
13209;BME280;6669;42.678;23.332;2023-03-13T00:48:57;94797.88;;;0.43;100.00
13209;BME280;6669;42.678;23.332;2023-03-13T00:51:25;94787.63;;;0.30;100.00
13209;BME280;6669;42.678;23.332;2023-03-13T00:53:54;94796.75;;;0.35;100.00
13209;BME280;6669;42.678;23.332;2023-03-13T00:56:22;94797.44;;;0.37;100.00
13209;BME280;6669;42.678;23.332;2023-03-13T00:58:51;94792.56;;;0.34;100.00
13209;BME280;6669;42.678;23.332;2023-03-13T01:01:20;94775.72;;;0.18;100.00
13209;BME280;6669;42.678;23.332;2023-03-13T01:03:51;94787.84;;;0.27;100.00
13209;BME280;6669;42.678;23.332;2023-03-13T01:06:22;94791.34;;;0.26;100.00
13209;BME280;6669;42.678;23.332;2023-03-13T01:08:50;94763.97;;;0.03;100.00
13209;BME280;6669;42.678;23.332;2023-03-13T01:11:21;94766.53;;;0.03;100.00
13209;BME280;6669;42.678;23.332;2023-03-13T01:13:52;94774.75;;;0.19;100.00
13209;BME280;6669;42.678;23.332;2023-03-13T01:16:21;94791.34;;;0.26;100.00
13209;BME280;6669;42.678;23.332;2023-03-13T01:18:51;94780.19;;;0.27;100.00
13209;BME280;6669;42.678;23.332;2023-03-13T01:21:24;94790.50;;;0.39;100.00
13209;BME280;6669;42.678;23.332;2023-03-13T01:23:52;94788.94;;;0.49;100.00
13209;BME280;6669;42.678;23.332;2023-03-13T01:26:21;94791.88;;;0.56;100.00
13209;BME280;6669;42.678;23.332;2023-03-13T01:28:50;94792.50;;;0.59;100.00
13209;BME280;6669;42.678;23.332;2023-03-13T01:31:21;94789.44;;;0.54;100.00
13209;BME280;6669;42.678;23.332;2023-03-13T01:33:52;94793.81;;;0.52;100.00
13209;BME280;6669;42.678;23.332;2023-03-13T01:36:21;94793.06;;;0.39;100.00
13209;BME280;6669;42.678;23.332;2023-03-13T01:38:53;94799.19;;;0.36;100.00
13209;BME280;6669;42.678;23.332;2023-03-13T01:41:22;94778.47;;;0.15;100.00
13209;BME280;6669;42.678;23.332;2023-03-13T01:43:51;94813.44;;;0.27;100.00
13209;BME280;6669;42.678;23.332;2023-03-13T01:46:22;94816.09;;;0.26;100.00
13209;BME280;6669;42.678;23.332;2023-03-13T01:48:52;94789.53;;;0.15;100.00
13209;BME280;6669;42.678;23.332;2023-03-13T01:51:23;94800.78;;;0.13;100.00
13209;BME280;6669;42.678;23.332;2023-03-13T01:53:58;94814.56;;;0.23;100.00
13209;BME280;6669;42.678;23.332;2023-03-13T01:56:33;94809.13;;;0.28;100.00
13209;BME280;6669;42.678;23.332;2023-03-13T01:59:03;94811.38;;;0.32;100.00
13209;BME280;6669;42.678;23.332;2023-03-13T02:01:33;94808.09;;;0.43;100.00
13209;BME280;6669;42.678;23.332;2023-03-13T02:04:01;94811.34;;;0.45;100.00
13209;BME280;6669;42.678;23.332;2023-03-13T02:06:32;94811.72;;;0.52;100.00
13209;BME280;6669;42.678;23.332;2023-03-13T02:09:07;94792.22;;;0.51;100.00
13209;BME280;6669;42.678;23.332;2023-03-13T02:11:44;94803.13;;;0.53;100.00
13209;BME280;6669;42.678;23.332;2023-03-13T02:14:14;94801.72;;;0.49;100.00
13209;BME280;6669;42.678;23.332;2023-03-13T02:16:44;94793.56;;;0.44;100.00
13209;BME280;6669;42.678;23.332;2023-03-13T02:19:17;94814.91;;;0.56;100.00
13209;BME280;6669;42.678;23.332;2023-03-13T02:21:49;94822.47;;;0.57;100.00
13209;BME280;6669;42.678;23.332;2023-03-13T02:24:28;94820.13;;;0.54;100.00
13209;BME280;6669;42.678;23.332;2023-03-13T02:27:00;94829.31;;;0.57;100.00
13209;BME280;6669;42.678;23.332;2023-03-13T02:29:28;94838.03;;;0.54;100.00
13209;BME280;6669;42.678;23.332;2023-03-13T02:31:56;94831.28;;;0.53;100.00
13209;BME280;6669;42.678;23.332;2023-03-13T02:34:28;94819.34;;;0.41;100.00
13209;BME280;6669;42.678;23.332;2023-03-13T02:36:58;94841.00;;;0.48;100.00
13209;BME280;6669;42.678;23.332;2023-03-13T02:39:27;94844.94;;;0.41;100.00
13209;BME280;6669;42.678;23.332;2023-03-13T02:42:00;94858.50;;;0.41;100.00
13209;BME280;6669;42.678;23.332;2023-03-13T02:44:28;94868.75;;;0.28;100.00
13209;BME280;6669;42.678;23.332;2023-03-13T02:46:56;94869.78;;;0.13;100.00
13209;BME280;6669;42.678;23.332;2023-03-13T02:49:26;94876.72;;;0.11;100.00
13209;BME280;6669;42.678;23.332;2023-03-13T02:51:56;94871.31;;;0.03;100.00
13209;BME280;6669;42.678;23.332;2023-03-13T02:54:29;94875.19;;;-0.05;100.00
13209;BME280;6669;42.678;23.332;2023-03-13T02:57:03;94882.34;;;-0.10;100.00
13209;BME280;6669;42.678;23.332;2023-03-13T02:59:31;94873.13;;;-0.25;100.00
13209;BME280;6669;42.678;23.332;2023-03-13T03:02:00;94883.13;;;-0.22;100.00
13209;BME280;6669;42.678;23.332;2023-03-13T03:04:29;94870.44;;;-0.37;100.00
13209;BME280;6669;42.678;23.332;2023-03-13T03:06:57;94884.84;;;-0.36;100.00
13209;BME280;6669;42.678;23.332;2023-03-13T03:09:25;94871.53;;;-0.41;100.00
13209;BME280;6669;42.678;23.332;2023-03-13T03:11:53;94879.63;;;-0.47;100.00
13209;BME280;6669;42.678;23.332;2023-03-13T03:14:22;94868.25;;;-0.56;100.00
13209;BME280;6669;42.678;23.332;2023-03-13T03:16:50;94884.91;;;-0.50;100.00
13209;BME280;6669;42.678;23.332;2023-03-13T03:19:18;94897.78;;;-0.52;100.00
13209;BME280;6669;42.678;23.332;2023-03-13T03:21:46;94876.38;;;-0.76;100.00
13209;BME280;6669;42.678;23.332;2023-03-13T03:24:15;94903.53;;;-0.62;100.00
13209;BME280;6669;42.678;23.332;2023-03-13T03:26:43;94909.06;;;-0.69;100.00
13209;BME280;6669;42.678;23.332;2023-03-13T03:29:11;94920.81;;;-0.66;100.00
13209;BME280;6669;42.678;23.332;2023-03-13T03:31:41;94918.81;;;-0.75;100.00
13209;BME280;6669;42.678;23.332;2023-03-13T03:34:09;94922.19;;;-0.75;100.00
13209;BME280;6669;42.678;23.332;2023-03-13T03:36:37;94916.56;;;-0.80;100.00
13209;BME280;6669;42.678;23.332;2023-03-13T03:39:05;94901.56;;;-0.99;100.00
13209;BME280;6669;42.678;23.332;2023-03-13T03:41:33;94921.84;;;-0.83;100.00
13209;BME280;6669;42.678;23.332;2023-03-13T03:44:01;94905.13;;;-1.02;100.00
13209;BME280;6669;42.678;23.332;2023-03-13T03:46:29;94918.97;;;-1.06;100.00
13209;BME280;6669;42.678;23.332;2023-03-13T03:48:58;94939.56;;;-0.94;100.00
13209;BME280;6669;42.678;23.332;2023-03-13T03:51:26;94947.66;;;-0.88;100.00
13209;BME280;6669;42.678;23.332;2023-03-13T03:53:54;94939.66;;;-0.96;100.00
13209;BME280;6669;42.678;23.332;2023-03-13T03:56:22;94949.75;;;-0.94;100.00
13209;BME280;6669;42.678;23.332;2023-03-13T03:58:50;94958.69;;;-0.87;100.00
13209;BME280;6669;42.678;23.332;2023-03-13T04:01:18;94937.38;;;-1.01;100.00
13209;BME280;6669;42.678;23.332;2023-03-13T04:03:46;94959.78;;;-0.91;100.00
13209;BME280;6669;42.678;23.332;2023-03-13T04:06:16;94962.72;;;-0.97;100.00
13209;BME280;6669;42.678;23.332;2023-03-13T04:08:44;94962.50;;;-0.94;100.00
13209;BME280;6669;42.678;23.332;2023-03-13T04:11:12;94959.06;;;-0.93;100.00
13209;BME280;6669;42.678;23.332;2023-03-13T04:13:40;94971.09;;;-0.95;100.00
13209;BME280;6669;42.678;23.332;2023-03-13T04:16:08;94982.56;;;-0.88;100.00
13209;BME280;6669;42.678;23.332;2023-03-13T04:18:36;94978.28;;;-0.88;100.00
13209;BME280;6669;42.678;23.332;2023-03-13T04:21:05;94956.25;;;-1.03;100.00
13209;BME280;6669;42.678;23.332;2023-03-13T04:23:34;94984.84;;;-0.98;100.00
13209;BME280;6669;42.678;23.332;2023-03-13T04:26:02;94984.22;;;-1.02;100.00
13209;BME280;6669;42.678;23.332;2023-03-13T04:28:30;94951.53;;;-1.24;100.00
13209;BME280;6669;42.678;23.332;2023-03-13T04:30:58;94994.59;;;-1.05;100.00
13209;BME280;6669;42.678;23.332;2023-03-13T04:33:26;94996.16;;;-1.02;100.00
13209;BME280;6669;42.678;23.332;2023-03-13T04:35:54;94997.16;;;-1.05;100.00
13209;BME280;6669;42.678;23.332;2023-03-13T04:38:23;94966.81;;;-1.24;100.00
13209;BME280;6669;42.678;23.332;2023-03-13T04:40:52;95013.47;;;-1.07;100.00
13209;BME280;6669;42.678;23.332;2023-03-13T04:43:20;95020.84;;;-1.03;100.00
13209;BME280;6669;42.678;23.332;2023-03-13T04:45:50;95020.56;;;-0.98;100.00
13209;BME280;6669;42.678;23.332;2023-03-13T04:48:20;95010.66;;;-1.17;100.00
13209;BME280;6669;42.678;23.332;2023-03-13T04:50:48;95035.16;;;-1.14;100.00
13209;BME280;6669;42.678;23.332;2023-03-13T04:53:16;95022.84;;;-1.22;100.00
13209;BME280;6669;42.678;23.332;2023-03-13T04:55:47;95013.13;;;-1.16;100.00
13209;BME280;6669;42.678;23.332;2023-03-13T04:58:16;95019.56;;;-1.10;100.00
13209;BME280;6669;42.678;23.332;2023-03-13T05:00:44;95032.50;;;-0.99;100.00
13209;BME280;6669;42.678;23.332;2023-03-13T05:03:12;95030.88;;;-1.00;100.00
13209;BME280;6669;42.678;23.332;2023-03-13T05:05:40;95038.06;;;-0.92;100.00
13209;BME280;6669;42.678;23.332;2023-03-13T05:08:08;95031.41;;;-0.94;100.00
13209;BME280;6669;42.678;23.332;2023-03-13T05:10:36;95029.34;;;-0.88;100.00
13209;BME280;6669;42.678;23.332;2023-03-13T05:13:06;95026.94;;;-0.91;100.00
13209;BME280;6669;42.678;23.332;2023-03-13T05:15:35;95024.69;;;-0.95;100.00
13209;BME280;6669;42.678;23.332;2023-03-13T05:18:03;95030.34;;;-0.90;100.00
13209;BME280;6669;42.678;23.332;2023-03-13T05:20:31;95051.47;;;-0.74;100.00
13209;BME280;6669;42.678;23.332;2023-03-13T05:22:59;95050.84;;;-0.77;100.00
13209;BME280;6669;42.678;23.332;2023-03-13T05:25:28;95055.22;;;-0.79;100.00
13209;BME280;6669;42.678;23.332;2023-03-13T05:27:56;95060.94;;;-0.76;100.00
13209;BME280;6669;42.678;23.332;2023-03-13T05:30:24;95045.25;;;-0.84;100.00
13209;BME280;6669;42.678;23.332;2023-03-13T05:32:53;95067.81;;;-0.76;100.00
13209;BME280;6669;42.678;23.332;2023-03-13T05:35:21;95062.22;;;-0.69;100.00
13209;BME280;6669;42.678;23.332;2023-03-13T05:37:49;95062.94;;;-0.67;100.00
13209;BME280;6669;42.678;23.332;2023-03-13T05:40:17;95046.81;;;-0.67;100.00
13209;BME280;6669;42.678;23.332;2023-03-13T05:42:46;95060.03;;;-0.60;100.00
13209;BME280;6669;42.678;23.332;2023-03-13T05:45:14;95066.50;;;-0.55;100.00
13209;BME280;6669;42.678;23.332;2023-03-13T05:47:42;95069.97;;;-0.56;100.00
13209;BME280;6669;42.678;23.332;2023-03-13T05:50:11;95070.13;;;-0.44;100.00
13209;BME280;6669;42.678;23.332;2023-03-13T05:52:39;95082.53;;;-0.38;100.00
13209;BME280;6669;42.678;23.332;2023-03-13T05:55:07;95080.53;;;-0.33;100.00
13209;BME280;6669;42.678;23.332;2023-03-13T05:57:35;95075.13;;;-0.28;100.00
13209;BME280;6669;42.678;23.332;2023-03-13T06:00:04;95084.84;;;-0.21;100.00
13209;BME280;6669;42.678;23.332;2023-03-13T06:02:33;95084.84;;;-0.21;100.00
13209;BME280;6669;42.678;23.332;2023-03-13T06:05:01;95066.75;;;-0.30;100.00
13209;BME280;6669;42.678;23.332;2023-03-13T06:07:30;95076.09;;;-0.17;100.00
13209;BME280;6669;42.678;23.332;2023-03-13T06:09:58;95095.13;;;-0.08;100.00
13209;BME280;6669;42.678;23.332;2023-03-13T06:12:26;95093.03;;;-0.01;100.00
13209;BME280;6669;42.678;23.332;2023-03-13T06:14:54;95072.63;;;-0.15;100.00
13209;BME280;6669;42.678;23.332;2023-03-13T06:17:22;95085.81;;;0.06;100.00
13209;BME280;6669;42.678;23.332;2023-03-13T06:19:51;95087.06;;;0.13;100.00
13209;BME280;6669;42.678;23.332;2023-03-13T06:22:19;95062.00;;;-0.09;100.00
13209;BME280;6669;42.678;23.332;2023-03-13T06:24:48;95071.72;;;0.13;100.00
13209;BME280;6669;42.678;23.332;2023-03-13T06:27:16;95091.91;;;0.30;100.00
13209;BME280;6669;42.678;23.332;2023-03-13T06:29:44;95091.63;;;0.35;100.00
13209;BME280;6669;42.678;23.332;2023-03-13T06:32:12;95100.44;;;0.44;100.00
13209;BME280;6669;42.678;23.332;2023-03-13T06:34:41;95088.78;;;0.40;100.00
13209;BME280;6669;42.678;23.332;2023-03-13T06:37:09;95063.84;;;0.43;100.00
13209;BME280;6669;42.678;23.332;2023-03-13T06:39:37;95068.75;;;0.46;100.00
13209;BME280;6669;42.678;23.332;2023-03-13T06:42:07;95074.72;;;0.60;100.00
13209;BME280;6669;42.678;23.332;2023-03-13T06:44:35;95058.75;;;0.56;100.00
13209;BME280;6669;42.678;23.332;2023-03-13T06:47:03;95054.75;;;0.65;100.00
13209;BME280;6669;42.678;23.332;2023-03-13T06:49:33;95074.13;;;0.82;100.00
13209;BME280;6669;42.678;23.332;2023-03-13T06:52:01;95065.72;;;0.80;100.00
13209;BME280;6669;42.678;23.332;2023-03-13T06:54:29;95073.09;;;0.97;100.00
13209;BME280;6669;42.678;23.332;2023-03-13T06:56:58;95080.38;;;1.04;100.00
13209;BME280;6669;42.678;23.332;2023-03-13T06:59:27;95083.34;;;0.97;100.00
13209;BME280;6669;42.678;23.332;2023-03-13T07:01:55;95061.84;;;1.00;100.00
13209;BME280;6669;42.678;23.332;2023-03-13T07:04:23;95075.53;;;1.12;100.00
13209;BME280;6669;42.678;23.332;2023-03-13T07:06:51;95048.84;;;1.03;100.00
13209;BME280;6669;42.678;23.332;2023-03-13T07:09:20;95068.91;;;1.22;100.00
13209;BME280;6669;42.678;23.332;2023-03-13T07:11:48;95081.59;;;1.37;100.00
13209;BME280;6669;42.678;23.332;2023-03-13T07:14:16;95066.84;;;1.40;100.00
13209;BME280;6669;42.678;23.332;2023-03-13T07:16:45;95074.41;;;1.42;100.00
13209;BME280;6669;42.678;23.332;2023-03-13T07:19:14;95074.38;;;1.55;100.00
13209;BME280;6669;42.678;23.332;2023-03-13T07:21:42;95057.06;;;1.58;100.00
13209;BME280;6669;42.678;23.332;2023-03-13T07:24:12;95063.06;;;1.70;100.00
13209;BME280;6669;42.678;23.332;2023-03-13T07:26:41;95073.63;;;1.78;100.00
13209;BME280;6669;42.678;23.332;2023-03-13T07:29:27;95068.09;;;1.72;100.00
13209;BME280;6669;42.678;23.332;2023-03-13T07:31:57;95069.63;;;1.74;100.00
13209;BME280;6669;42.678;23.332;2023-03-13T07:34:26;95049.03;;;1.76;100.00
13209;BME280;6669;42.678;23.332;2023-03-13T07:36:54;95064.34;;;1.89;100.00
13209;BME280;6669;42.678;23.332;2023-03-13T07:39:22;95065.66;;;1.94;100.00
13209;BME280;6669;42.678;23.332;2023-03-13T07:41:51;95066.94;;;2.13;100.00
13209;BME280;6669;42.678;23.332;2023-03-13T07:44:19;95070.25;;;2.26;100.00
13209;BME280;6669;42.678;23.332;2023-03-13T07:46:49;95079.59;;;2.27;100.00
13209;BME280;6669;42.678;23.332;2023-03-13T07:49:19;95063.00;;;2.20;100.00
13209;BME280;6669;42.678;23.332;2023-03-13T07:51:47;95063.03;;;2.32;100.00
13209;BME280;6669;42.678;23.332;2023-03-13T07:54:16;95039.69;;;2.23;100.00
13209;BME280;6669;42.678;23.332;2023-03-13T07:56:45;95065.09;;;2.51;100.00
13209;BME280;6669;42.678;23.332;2023-03-13T07:59:23;95037.00;;;2.60;100.00
13209;BME280;6669;42.678;23.332;2023-03-13T08:01:52;95057.25;;;2.76;100.00
13209;BME280;6669;42.678;23.332;2023-03-13T08:04:21;95045.81;;;2.81;100.00
13209;BME280;6669;42.678;23.332;2023-03-13T08:06:50;95046.63;;;2.81;100.00
13209;BME280;6669;42.678;23.332;2023-03-13T08:09:20;95051.66;;;2.83;100.00
13209;BME280;6669;42.678;23.332;2023-03-13T08:11:48;95048.50;;;2.79;100.00
13209;BME280;6669;42.678;23.332;2023-03-13T08:14:16;95050.16;;;2.80;100.00
13209;BME280;6669;42.678;23.332;2023-03-13T08:16:44;95033.41;;;2.63;100.00
13209;BME280;6669;42.678;23.332;2023-03-13T08:19:12;95026.19;;;2.68;100.00
13209;BME280;6669;42.678;23.332;2023-03-13T08:21:42;95044.22;;;3.02;100.00
13209;BME280;6669;42.678;23.332;2023-03-13T08:24:10;95053.22;;;2.97;100.00
13209;BME280;6669;42.678;23.332;2023-03-13T08:26:40;95040.91;;;2.89;100.00
13209;BME280;6669;42.678;23.332;2023-03-13T08:29:10;95052.25;;;2.98;100.00
13209;BME280;6669;42.678;23.332;2023-03-13T08:31:42;95044.34;;;3.01;100.00
13209;BME280;6669;42.678;23.332;2023-03-13T08:34:11;95059.03;;;3.10;100.00
13209;BME280;6669;42.678;23.332;2023-03-13T08:36:40;95040.84;;;3.02;100.00
13209;BME280;6669;42.678;23.332;2023-03-13T08:39:11;95061.50;;;3.11;100.00
13209;BME280;6669;42.678;23.332;2023-03-13T08:41:40;95036.75;;;3.22;100.00
13209;BME280;6669;42.678;23.332;2023-03-13T08:44:10;95061.84;;;3.52;100.00
13209;BME280;6669;42.678;23.332;2023-03-13T08:46:39;95023.22;;;3.54;100.00
13209;BME280;6669;42.678;23.332;2023-03-13T08:49:09;95054.44;;;3.93;100.00
13209;BME280;6669;42.678;23.332;2023-03-13T08:51:39;95049.72;;;4.09;100.00
13209;BME280;6669;42.678;23.332;2023-03-13T08:54:07;95051.59;;;4.19;97.54
13209;BME280;6669;42.678;23.332;2023-03-13T08:56:37;95023.63;;;4.14;96.82
13209;BME280;6669;42.678;23.332;2023-03-13T08:59:06;95024.34;;;4.16;93.79
13209;BME280;6669;42.678;23.332;2023-03-13T09:01:35;95037.78;;;4.08;92.75
13209;BME280;6669;42.678;23.332;2023-03-13T09:04:04;95034.06;;;4.13;93.61
13209;BME280;6669;42.678;23.332;2023-03-13T09:06:33;95039.03;;;4.25;92.01
13209;BME280;6669;42.678;23.332;2023-03-13T09:09:02;95047.91;;;4.54;91.76
13209;BME280;6669;42.678;23.332;2023-03-13T09:11:31;95039.00;;;4.58;89.74
13209;BME280;6669;42.678;23.332;2023-03-13T09:14:01;95049.56;;;4.55;89.92
13209;BME280;6669;42.678;23.332;2023-03-13T09:16:30;95050.94;;;4.59;88.41
13209;BME280;6669;42.678;23.332;2023-03-13T09:18:59;95014.91;;;4.38;87.09
13209;BME280;6669;42.678;23.332;2023-03-13T09:21:28;94998.44;;;4.50;87.12
13209;BME280;6669;42.678;23.332;2023-03-13T09:23:57;95025.34;;;4.79;86.84
13209;BME280;6669;42.678;23.332;2023-03-13T09:26:26;95032.53;;;5.06;87.09
13209;BME280;6669;42.678;23.332;2023-03-13T09:28:54;95028.00;;;5.19;84.11
13209;BME280;6669;42.678;23.332;2023-03-13T09:31:26;95011.19;;;5.25;84.12
13209;BME280;6669;42.678;23.332;2023-03-13T09:33:56;95035.59;;;5.62;82.92
13209;BME280;6669;42.678;23.332;2023-03-13T09:36:24;95031.19;;;5.83;83.17
13209;BME280;6669;42.678;23.332;2023-03-13T09:38:54;95018.69;;;5.88;80.57
13209;BME280;6669;42.678;23.332;2023-03-13T09:41:26;95028.94;;;6.19;80.39
13209;BME280;6669;42.678;23.332;2023-03-13T09:44:00;95040.25;;;6.48;78.09
13209;BME280;6669;42.678;23.332;2023-03-13T09:46:36;95008.72;;;6.34;77.75
13209;BME280;6669;42.678;23.332;2023-03-13T09:49:12;95020.13;;;6.51;75.42
13209;BME280;6669;42.678;23.332;2023-03-13T09:51:47;95004.38;;;6.25;74.34
13209;BME280;6669;42.678;23.332;2023-03-13T09:54:24;95004.63;;;6.51;75.34
13209;BME280;6669;42.678;23.332;2023-03-13T09:56:55;95024.03;;;6.85;74.47
13209;BME280;6669;42.678;23.332;2023-03-13T09:59:28;95012.94;;;7.12;74.30
13209;BME280;6669;42.678;23.332;2023-03-13T10:02:04;94996.31;;;7.25;71.67
13209;BME280;6669;42.678;23.332;2023-03-13T10:04:46;95011.47;;;7.75;71.47
13209;BME280;6669;42.678;23.332;2023-03-13T10:07:16;95013.63;;;7.98;68.40
13209;BME280;6669;42.678;23.332;2023-03-13T10:09:46;95012.44;;;7.92;67.71
13209;BME280;6669;42.678;23.332;2023-03-13T10:12:18;95012.97;;;8.32;65.22
13209;BME280;6669;42.678;23.332;2023-03-13T10:14:53;95004.53;;;8.12;64.66
13209;BME280;6669;42.678;23.332;2023-03-13T10:17:31;94996.03;;;8.74;63.86
13209;BME280;6669;42.678;23.332;2023-03-13T10:20:02;94991.81;;;8.99;64.20
13209;BME280;6669;42.678;23.332;2023-03-13T10:22:37;94985.25;;;9.47;61.78
13209;BME280;6669;42.678;23.332;2023-03-13T10:25:08;94974.81;;;9.74;61.32
13209;BME280;6669;42.678;23.332;2023-03-13T10:27:43;94969.38;;;10.10;61.14
13209;BME280;6669;42.678;23.332;2023-03-13T10:30:28;94952.78;;;9.94;59.74
13209;BME280;6669;42.678;23.332;2023-03-13T10:33:16;94949.88;;;10.14;59.31
13209;BME280;6669;42.678;23.332;2023-03-13T10:35:45;94938.72;;;10.38;58.20
13209;BME280;6669;42.678;23.332;2023-03-13T10:38:25;94946.13;;;10.99;56.62
13209;BME280;6669;42.678;23.332;2023-03-13T10:40:56;94947.50;;;11.66;56.96
13209;BME280;6669;42.678;23.332;2023-03-13T10:43:27;94943.94;;;11.99;56.34
13209;BME280;6669;42.678;23.332;2023-03-13T10:45:56;94947.84;;;12.64;55.90
13209;BME280;6669;42.678;23.332;2023-03-13T10:48:29;94941.34;;;12.45;54.66
13209;BME280;6669;42.678;23.332;2023-03-13T10:51:02;94938.03;;;12.28;53.38
13209;BME280;6669;42.678;23.332;2023-03-13T10:53:35;94939.47;;;12.07;54.23
13209;BME280;6669;42.678;23.332;2023-03-13T10:56:10;94932.03;;;12.04;54.60
13209;BME280;6669;42.678;23.332;2023-03-13T10:58:41;94925.53;;;11.69;54.50
13209;BME280;6669;42.678;23.332;2023-03-13T11:01:21;94926.91;;;11.80;54.58
13209;BME280;6669;42.678;23.332;2023-03-13T11:03:53;94922.00;;;11.85;53.79
13209;BME280;6669;42.678;23.332;2023-03-13T11:06:32;94925.31;;;12.33;54.13
13209;BME280;6669;42.678;23.332;2023-03-13T11:09:10;94901.56;;;12.05;52.97
13209;BME280;6669;42.678;23.332;2023-03-13T11:11:44;94898.97;;;12.43;52.87
13209;BME280;6669;42.678;23.332;2023-03-13T11:14:15;94886.31;;;12.40;52.16
13209;BME280;6669;42.678;23.332;2023-03-13T11:16:48;94905.63;;;12.46;52.95
13209;BME280;6669;42.678;23.332;2023-03-13T11:19:36;94908.31;;;12.75;51.93
13209;BME280;6669;42.678;23.332;2023-03-13T11:22:19;94905.75;;;12.67;52.49
13209;BME280;6669;42.678;23.332;2023-03-13T11:24:53;94896.69;;;13.08;51.66
13209;BME280;6669;42.678;23.332;2023-03-13T11:27:30;94890.38;;;13.32;51.93
13209;BME280;6669;42.678;23.332;2023-03-13T11:30:14;94883.84;;;13.21;51.91
13209;BME280;6669;42.678;23.332;2023-03-13T11:32:51;94885.28;;;13.24;51.38
13209;BME280;6669;42.678;23.332;2023-03-13T11:35:35;94880.53;;;13.64;51.49
13209;BME280;6669;42.678;23.332;2023-03-13T11:38:07;94877.69;;;14.02;50.50
13209;BME280;6669;42.678;23.332;2023-03-13T11:40:43;94869.78;;;13.96;50.22
13209;BME280;6669;42.678;23.332;2023-03-13T11:43:30;94866.25;;;13.82;50.18
13209;BME280;6669;42.678;23.332;2023-03-13T11:46:21;94847.13;;;13.60;49.56
13209;BME280;6669;42.678;23.332;2023-03-13T11:49:13;94851.69;;;14.16;49.82
13209;BME280;6669;42.678;23.332;2023-03-13T11:51:57;94845.28;;;13.75;49.04
13209;BME280;6669;42.678;23.332;2023-03-13T11:54:56;94833.34;;;14.37;49.63
13209;BME280;6669;42.678;23.332;2023-03-13T11:57:27;94837.78;;;14.37;48.26
13209;BME280;6669;42.678;23.332;2023-03-13T12:00:13;94820.22;;;14.59;48.83
13209;BME280;6669;42.678;23.332;2023-03-13T12:02:47;94832.75;;;15.06;48.86
13209;BME280;6669;42.678;23.332;2023-03-13T12:05:18;94827.53;;;15.54;48.59
13209;BME280;6669;42.678;23.332;2023-03-13T12:07:52;94817.53;;;15.91;47.97
13209;BME280;6669;42.678;23.332;2023-03-13T12:10:25;94811.47;;;15.84;47.45
13209;BME280;6669;42.678;23.332;2023-03-13T12:13:00;94800.31;;;15.68;47.04
13209;BME280;6669;42.678;23.332;2023-03-13T12:15:33;94789.63;;;15.70;47.26
13209;BME280;6669;42.678;23.332;2023-03-13T12:18:08;94784.25;;;16.12;47.87
13209;BME280;6669;42.678;23.332;2023-03-13T12:20:43;94802.19;;;16.42;47.22
13209;BME280;6669;42.678;23.332;2023-03-13T12:23:23;94802.19;;;16.15;46.54
13209;BME280;6669;42.678;23.332;2023-03-13T12:25:57;94804.03;;;16.28;46.83
13209;BME280;6669;42.678;23.332;2023-03-13T12:28:34;94799.34;;;16.37;46.32
13209;BME280;6669;42.678;23.332;2023-03-13T12:31:12;94790.47;;;16.38;46.37
13209;BME280;6669;42.678;23.332;2023-03-13T12:33:47;94795.75;;;16.44;46.20
13209;BME280;6669;42.678;23.332;2023-03-13T12:36:21;94794.13;;;16.37;45.78
13209;BME280;6669;42.678;23.332;2023-03-13T12:39:04;94783.25;;;16.06;46.15
13209;BME280;6669;42.678;23.332;2023-03-13T12:41:39;94792.72;;;16.41;45.41
13209;BME280;6669;42.678;23.332;2023-03-13T12:44:11;94784.94;;;16.86;44.75
13209;BME280;6669;42.678;23.332;2023-03-13T12:46:45;94776.38;;;15.98;45.21
13209;BME280;6669;42.678;23.332;2023-03-13T12:49:32;94783.44;;;16.38;45.10
13209;BME280;6669;42.678;23.332;2023-03-13T12:52:26;94790.50;;;16.44;45.50
13209;BME280;6669;42.678;23.332;2023-03-13T12:55:28;94779.88;;;16.84;45.29
13209;BME280;6669;42.678;23.332;2023-03-13T12:58:15;94784.19;;;17.24;44.27
13209;BME280;6669;42.678;23.332;2023-03-13T13:00:48;94803.16;;;16.74;44.78
13209;BME280;6669;42.678;23.332;2023-03-13T13:03:27;94799.13;;;16.58;44.95
13209;BME280;6669;42.678;23.332;2023-03-13T13:06:08;94784.81;;;16.54;44.73
13209;BME280;6669;42.678;23.332;2023-03-13T13:08:39;94777.88;;;16.80;44.37
13209;BME280;6669;42.678;23.332;2023-03-13T13:11:47;94795.47;;;16.79;44.35
13209;BME280;6669;42.678;23.332;2023-03-13T13:17:21;94774.69;;;16.64;44.22
13209;BME280;6669;42.678;23.332;2023-03-13T13:19:51;94793.16;;;17.10;44.46
13209;BME280;6669;42.678;23.332;2023-03-13T13:22:45;94782.69;;;17.03;44.14